Time;durP1;ratioP1;P1;durP2;ratioP2;P2;SDS_P1;SDS_P2;PMS_P1;PMS_P2;Temp;Humidity;BMP_temperature;BMP_pressure;BME280_temperature;BME280_humidity;BME280_pressure;Samples;Min_cycle;Max_cycle;Signal;HPM_P1;HPM_P2
2023/09/29 00:02:07;0.00;0.00;0.62;0.00;0.00;0.62;9.10;7.63;;;26.60;37.60;;;;;;2262478;61;20364;-67
2023/09/29 00:04:51;0.00;0.00;0.62;0.00;0.00;0.62;9.30;7.57;;;26.60;37.60;;;;;;2260310;61;20409;-67
2023/09/29 00:07:37;0.00;0.00;0.62;0.00;0.00;0.62;8.00;7.30;;;26.60;37.60;;;;;;2260178;61;20399;-68
2023/09/29 00:10:22;0.00;0.00;0.62;0.00;0.00;0.62;8.23;7.30;;;26.60;37.50;;;;;;2262400;61;20393;-67
2023/09/29 00:13:06;0.00;0.00;0.62;0.00;0.00;0.62;8.77;7.87;;;26.60;37.50;;;;;;2260304;61;20424;-68
2023/09/29 00:15:51;0.00;0.00;0.62;0.00;0.00;0.62;7.30;6.60;;;26.60;37.50;;;;;;2260127;61;20894;-65
2023/09/29 00:18:37;0.00;0.00;0.62;0.00;0.00;0.62;7.80;7.00;;;26.60;37.50;;;;;;2259533;61;20380;-65
2023/09/29 00:21:21;0.00;0.00;0.62;0.00;0.00;0.62;7.73;6.93;;;26.60;37.50;;;;;;2260236;61;20472;-66
2023/09/29 00:24:07;0.00;0.00;0.62;0.00;0.00;0.62;9.87;7.10;;;26.60;37.50;;;;;;2260228;61;20896;-66
2023/09/29 00:26:52;0.00;0.00;0.62;0.00;0.00;0.62;7.70;7.00;;;26.60;37.60;;;;;;2260253;61;20866;-65
2023/09/29 00:29:38;0.00;0.00;0.62;0.00;0.00;0.62;7.97;7.30;;;26.60;37.50;;;;;;2262264;61;20944;-66
2023/09/29 00:32:22;0.00;0.00;0.62;0.00;0.00;0.62;8.70;8.00;;;26.50;37.50;;;;;;2259674;61;20951;-66
2023/09/29 00:35:17;0.00;0.00;0.62;0.00;0.00;0.62;7.73;7.03;;;26.50;37.50;;;;;;2260350;61;20377;-66
2023/09/29 00:38:03;0.00;0.00;0.62;0.00;0.00;0.62;8.33;7.53;;;26.50;37.50;;;;;;2262088;61;20453;-66
2023/09/29 00:40:48;0.00;0.00;0.62;0.00;0.00;0.62;7.90;7.20;;;26.50;37.60;;;;;;2259901;61;20883;-64
2023/09/29 00:43:35;0.00;0.00;0.62;0.00;0.00;0.62;8.87;7.73;;;26.50;37.70;;;;;;2260241;61;20396;-65
2023/09/29 00:46:19;0.00;0.00;0.62;0.00;0.00;0.62;10.33;8.97;;;26.40;37.60;;;;;;2260089;61;20404;-67
2023/09/29 00:49:04;0.00;0.00;0.62;0.00;0.00;0.62;8.63;7.80;;;26.40;37.70;;;;;;2262024;61;20369;-66
2023/09/29 00:51:52;0.00;0.00;0.62;0.00;0.00;0.62;8.30;7.50;;;26.40;37.70;;;;;;2260151;61;20836;-66
2023/09/29 00:54:36;0.00;0.00;0.62;0.00;0.00;0.62;9.20;8.30;;;26.40;38.50;;;;;;2260714;61;20376;-65
2023/09/29 00:57:21;0.00;0.00;0.62;0.00;0.00;0.62;8.77;7.90;;;26.40;37.90;;;;;;2264382;61;20364;-66
2023/09/29 01:03:18;0.00;0.00;0.62;0.00;0.00;0.62;9.53;8.53;;;26.30;37.90;;;;;;2250927;61;20425;-66
2023/09/29 01:06:08;0.00;0.00;0.62;0.00;0.00;0.62;11.47;10.37;;;26.30;37.90;;;;;;2263983;61;20379;-66
2023/09/29 01:08:54;0.00;0.00;0.62;0.00;0.00;0.62;9.67;8.30;;;26.30;37.80;;;;;;2263806;61;20920;-66
2023/09/29 01:11:46;0.00;0.00;0.62;0.00;0.00;0.62;9.53;8.73;;;26.30;37.90;;;;;;2272691;48;20496;-68
2023/09/29 01:14:30;0.00;0.00;0.62;0.00;0.00;0.62;8.93;8.03;;;26.30;37.90;;;;;;2263815;61;20763;-68
2023/09/29 01:17:15;0.00;0.00;0.62;0.00;0.00;0.62;10.77;9.67;;;26.20;38.00;;;;;;2263784;61;20892;-66
2023/09/29 01:20:00;0.00;0.00;0.62;0.00;0.00;0.62;9.30;8.50;;;26.20;38.10;;;;;;2263506;61;20394;-66
2023/09/29 01:22:46;0.00;0.00;0.62;0.00;0.00;0.62;13.27;10.67;;;26.20;38.10;;;;;;2263527;61;20461;-67
2023/09/29 01:25:33;0.00;0.00;0.62;0.00;0.00;0.62;11.50;10.40;;;26.20;38.20;;;;;;2263790;61;20423;-65
2023/09/29 01:28:18;0.00;0.00;0.62;0.00;0.00;0.62;9.40;8.03;;;26.20;38.20;;;;;;2263993;61;20368;-65
2023/09/29 01:31:06;0.00;0.00;0.62;0.00;0.00;0.62;10.60;8.57;;;26.10;38.20;;;;;;2264315;61;20861;-65
2023/09/29 01:33:51;0.00;0.00;0.62;0.00;0.00;0.62;8.93;8.13;;;26.10;38.40;;;;;;2264897;61;20639;-66
2023/09/29 01:36:36;0.00;0.00;0.62;0.00;0.00;0.62;9.50;8.60;;;26.00;38.30;;;;;;2264569;61;20376;-70
2023/09/29 01:39:21;0.00;0.00;0.62;0.00;0.00;0.62;10.60;9.60;;;26.00;38.50;;;;;;2264443;61;20367;-66
2023/09/29 01:42:07;0.00;0.00;0.62;0.00;0.00;0.62;9.73;8.87;;;26.00;38.60;;;;;;2264083;61;20911;-67
2023/09/29 01:44:52;0.00;0.00;0.62;0.00;0.00;0.62;8.83;8.03;;;26.00;38.60;;;;;;2277543;61;20413;-67
2023/09/29 01:47:38;0.00;0.00;0.62;0.00;0.00;0.62;9.13;8.10;;;25.90;38.70;;;;;;2264903;61;20360;-66
2023/09/29 01:50:23;0.00;0.00;0.62;0.00;0.00;0.62;9.63;7.93;;;25.90;38.80;;;;;;2264776;61;20376;-67
2023/09/29 01:53:11;0.00;0.00;0.62;0.00;0.00;0.62;10.43;9.43;;;25.80;38.80;;;;;;2264794;61;20364;-67
2023/09/29 01:55:55;0.00;0.00;0.62;0.00;0.00;0.62;8.20;7.40;;;25.80;38.90;;;;;;2264777;61;20376;-66
2023/09/29 01:58:41;0.00;0.00;0.62;0.00;0.00;0.62;9.20;8.40;;;25.80;39.00;;;;;;2264110;61;20403;-67
2023/09/29 02:01:26;0.00;0.00;0.62;0.00;0.00;0.62;9.47;8.57;;;25.80;39.10;;;;;;2393000;40;20521;-65
2023/09/29 02:04:10;0.00;0.00;0.62;0.00;0.00;0.62;7.97;7.23;;;25.80;39.10;;;;;;2268899;61;20450;-68
2023/09/29 02:06:57;0.00;0.00;0.62;0.00;0.00;0.62;9.33;8.43;;;25.80;39.20;;;;;;2268614;61;20454;-66
2023/09/29 02:09:43;0.00;0.00;0.62;0.00;0.00;0.62;8.20;7.50;;;25.80;39.20;;;;;;2287987;39;20451;31
2023/09/29 02:12:29;0.00;0.00;0.62;0.00;0.00;0.62;7.87;7.27;;;25.70;39.20;;;;;;2257427;61;20420;-65
2023/09/29 02:15:16;0.00;0.00;0.62;0.00;0.00;0.62;11.53;9.10;;;25.70;39.20;;;;;;2253525;61;20509;-66
2023/09/29 02:18:01;0.00;0.00;0.62;0.00;0.00;0.62;11.10;8.13;;;25.70;39.30;;;;;;2255939;61;20390;-66
2023/09/29 02:20:46;0.00;0.00;0.62;0.00;0.00;0.62;8.10;7.30;;;25.70;39.30;;;;;;2256688;61;20876;-66
2023/09/29 02:23:31;0.00;0.00;0.62;0.00;0.00;0.62;9.03;7.63;;;25.70;39.30;;;;;;2256098;61;20366;-66
2023/09/29 02:26:17;0.00;0.00;0.62;0.00;0.00;0.62;7.30;6.70;;;25.70;39.40;;;;;;2256420;61;20504;-65
2023/09/29 02:29:03;0.00;0.00;0.62;0.00;0.00;0.62;8.17;7.33;;;25.70;39.40;;;;;;2256181;61;20366;-66
2023/09/29 02:31:49;0.00;0.00;0.62;0.00;0.00;0.62;7.07;6.37;;;25.70;39.40;;;;;;2256651;61;20382;-66
2023/09/29 02:34:34;0.00;0.00;0.62;0.00;0.00;0.62;8.57;7.70;;;25.70;39.40;;;;;;2256653;61;20370;-66
2023/09/29 02:37:19;0.00;0.00;0.62;0.00;0.00;0.62;10.97;7.77;;;25.70;39.50;;;;;;2256595;61;21046;-69
2023/09/29 02:40:07;0.00;0.00;0.62;0.00;0.00;0.62;7.50;6.90;;;25.70;39.50;;;;;;2256245;61;20389;-65
2023/09/29 02:42:53;0.00;0.00;0.62;0.00;0.00;0.62;7.60;6.80;;;25.80;39.50;;;;;;2256914;61;20369;-66
2023/09/29 02:45:40;0.00;0.00;0.62;0.00;0.00;0.62;8.00;7.33;;;25.80;39.50;;;;;;2256327;61;20381;-66
2023/09/29 02:48:27;0.00;0.00;0.62;0.00;0.00;0.62;7.47;6.77;;;25.80;39.50;;;;;;2256121;61;20366;-65
2023/09/29 02:51:16;0.00;0.00;0.62;0.00;0.00;0.62;8.17;7.37;;;25.80;39.40;;;;;;2255626;61;20437;-67
2023/09/29 02:54:04;0.00;0.00;0.62;0.00;0.00;0.62;7.30;6.60;;;25.80;39.50;;;;;;2256378;61;20361;-63
2023/09/29 02:56:50;0.00;0.00;0.62;0.00;0.00;0.62;7.07;6.47;;;25.80;39.50;;;;;;2255976;61;20370;-67
2023/09/29 02:59:38;0.00;0.00;0.62;0.00;0.00;0.62;6.70;6.00;;;25.80;39.50;;;;;;2255923;61;20924;-66
2023/09/29 03:02:23;0.00;0.00;0.62;0.00;0.00;0.62;7.13;6.47;;;25.80;39.50;;;;;;2256498;61;20416;-66
2023/09/29 03:05:09;0.00;0.00;0.62;0.00;0.00;0.62;7.03;6.10;;;25.80;39.50;;;;;;2256658;61;20365;-66
2023/09/29 03:07:57;0.00;0.00;0.62;0.00;0.00;0.62;6.20;5.60;;;25.90;39.50;;;;;;2255825;61;20898;-67
2023/09/29 03:11:09;0.00;0.00;0.62;0.00;0.00;0.62;6.47;5.87;;;25.90;39.50;;;;;;2395252;39;20486;-67
2023/09/29 03:13:56;0.00;0.00;0.62;0.00;0.00;0.62;6.20;5.60;;;25.90;39.40;;;;;;2265552;61;20371;-67
2023/09/29 03:16:41;0.00;0.00;0.62;0.00;0.00;0.62;6.20;5.60;;;26.00;39.50;;;;;;2264581;61;20934;-66
2023/09/29 03:19:26;0.00;0.00;0.62;0.00;0.00;0.62;6.40;5.80;;;26.00;39.40;;;;;;2264209;61;20418;-67
2023/09/29 03:22:13;0.00;0.00;0.62;0.00;0.00;0.62;7.13;6.43;;;26.00;39.30;;;;;;2260363;61;20353;-67
2023/09/29 03:24:58;0.00;0.00;0.62;0.00;0.00;0.62;6.40;5.80;;;26.00;39.30;;;;;;2260372;61;20457;-67
2023/09/29 03:27:43;0.00;0.00;0.62;0.00;0.00;0.62;6.90;6.30;;;26.10;39.30;;;;;;2260120;61;20393;-67
2023/09/29 03:30:28;0.00;0.00;0.62;0.00;0.00;0.62;6.47;5.70;;;26.10;39.20;;;;;;2259922;61;20431;-67
2023/09/29 03:33:13;0.00;0.00;0.62;0.00;0.00;0.62;5.40;4.90;;;26.10;39.20;;;;;;2260610;61;20365;-65
2023/09/29 03:35:58;0.00;0.00;0.62;0.00;0.00;0.62;5.40;4.90;;;26.10;39.10;;;;;;2260254;61;20400;-65
2023/09/29 03:38:45;0.00;0.00;0.62;0.00;0.00;0.62;6.00;5.40;;;26.10;39.10;;;;;;2260072;61;20507;-68
2023/09/29 03:41:29;0.00;0.00;0.62;0.00;0.00;0.62;6.83;5.40;;;26.10;39.10;;;;;;2260453;61;20928;-67
2023/09/29 03:44:14;0.00;0.00;0.62;0.00;0.00;0.62;5.50;5.00;;;26.10;39.10;;;;;;2260059;61;20806;-67
2023/09/29 03:47:00;0.00;0.00;0.62;0.00;0.00;0.62;4.97;4.40;;;26.10;39.20;;;;;;2260566;61;20364;-64
2023/09/29 03:49:45;0.00;0.00;0.62;0.00;0.00;0.62;5.73;5.23;;;26.10;39.20;;;;;;2260170;61;20372;-67
2023/09/29 03:52:32;0.00;0.00;0.62;0.00;0.00;0.62;5.67;5.17;;;26.10;39.30;;;;;;2260096;61;20416;-67
2023/09/29 03:55:18;0.00;0.00;0.62;0.00;0.00;0.62;5.17;4.70;;;26.10;39.30;;;;;;2262508;61;20384;-66
2023/09/29 03:58:03;0.00;0.00;0.62;0.00;0.00;0.62;8.73;5.37;;;26.20;39.40;;;;;;2264101;61;20367;-66
2023/09/29 04:00:48;0.00;0.00;0.62;0.00;0.00;0.62;9.50;6.10;;;26.20;39.30;;;;;;2264411;61;20443;-66
2023/09/29 04:03:33;0.00;0.00;0.62;0.00;0.00;0.62;5.93;5.33;;;26.10;39.20;;;;;;2264473;61;20890;-67
2023/09/29 04:06:18;0.00;0.00;0.62;0.00;0.00;0.62;5.80;5.10;;;26.10;39.20;;;;;;2264360;61;20363;-66
2023/09/29 04:09:04;0.00;0.00;0.62;0.00;0.00;0.62;5.20;4.77;;;26.10;39.30;;;;;;2263631;61;20884;-66
2023/09/29 04:11:52;0.00;0.00;0.62;0.00;0.00;0.62;8.10;5.80;;;26.10;39.30;;;;;;2515794;39;20388;-67
2023/09/29 04:14:38;0.00;0.00;0.62;0.00;0.00;0.62;5.13;4.63;;;26.00;39.30;;;;;;2265595;61;20839;-66
2023/09/29 04:17:23;0.00;0.00;0.62;0.00;0.00;0.62;5.67;4.90;;;26.00;39.50;;;;;;2264412;61;20951;-67
2023/09/29 04:20:10;0.00;0.00;0.62;0.00;0.00;0.62;5.70;4.87;;;26.00;40.20;;;;;;2264068;61;20391;-67
2023/09/29 04:22:54;0.00;0.00;0.62;0.00;0.00;0.62;6.00;5.40;;;26.00;39.60;;;;;;2264420;61;20367;-66
2023/09/29 04:25:39;0.00;0.00;0.62;0.00;0.00;0.62;6.57;4.60;;;26.00;39.60;;;;;;2264409;61;20942;-66
2023/09/29 04:28:23;0.00;0.00;0.62;0.00;0.00;0.62;5.33;4.77;;;25.90;39.70;;;;;;2263929;61;20383;-67
2023/09/29 04:31:10;0.00;0.00;0.62;0.00;0.00;0.62;6.63;5.43;;;25.90;39.70;;;;;;2264307;61;20465;-66
2023/09/29 04:33:54;0.00;0.00;0.62;0.00;0.00;0.62;7.33;4.27;;;25.90;39.80;;;;;;2264316;61;20400;-68
2023/09/29 04:36:40;0.00;0.00;0.62;0.00;0.00;0.62;7.77;4.83;;;25.90;39.80;;;;;;2264166;61;20900;-67
2023/09/29 04:39:25;0.00;0.00;0.62;0.00;0.00;0.62;7.23;4.57;;;25.90;39.80;;;;;;2264121;61;20363;-67
2023/09/29 04:42:09;0.00;0.00;0.62;0.00;0.00;0.62;6.00;4.93;;;25.80;39.80;;;;;;2263961;61;20387;-66
2023/09/29 04:44:54;0.00;0.00;0.62;0.00;0.00;0.62;5.03;4.53;;;25.80;40.20;;;;;;2264347;61;20375;-67
2023/09/29 04:47:40;0.00;0.00;0.62;0.00;0.00;0.62;6.97;5.07;;;25.80;40.00;;;;;;2264260;61;20403;-67
2023/09/29 04:50:25;0.00;0.00;0.62;0.00;0.00;0.62;5.07;4.40;;;25.80;40.00;;;;;;2264023;61;20950;-67
2023/09/29 04:53:10;0.00;0.00;0.62;0.00;0.00;0.62;8.83;5.23;;;25.80;40.00;;;;;;2263843;61;20368;-67
2023/09/29 04:55:58;0.00;0.00;0.62;0.00;0.00;0.62;5.97;4.77;;;25.80;40.00;;;;;;2267495;61;20433;-64
2023/09/29 04:58:42;0.00;0.00;0.62;0.00;0.00;0.62;8.30;4.57;;;25.80;40.00;;;;;;2267182;61;20363;-65
2023/09/29 05:01:27;0.00;0.00;0.62;0.00;0.00;0.62;7.17;5.00;;;25.80;40.00;;;;;;2268350;61;20396;-64
2023/09/29 05:04:13;0.00;0.00;0.62;0.00;0.00;0.62;5.37;4.30;;;25.80;40.10;;;;;;2268404;61;20363;-65
2023/09/29 05:06:57;0.00;0.00;0.62;0.00;0.00;0.62;6.10;5.47;;;25.80;40.10;;;;;;2268963;61;20876;-65
2023/09/29 05:09:42;0.00;0.00;0.62;0.00;0.00;0.62;8.30;5.47;;;25.80;40.00;;;;;;2268533;61;20878;-66
2023/09/29 05:12:28;0.00;0.00;0.62;0.00;0.00;0.62;6.20;4.90;;;25.80;40.00;;;;;;2268732;61;20363;-66
2023/09/29 05:15:13;0.00;0.00;0.62;0.00;0.00;0.62;8.50;5.10;;;25.80;40.00;;;;;;2268831;61;20468;-66
2023/09/29 05:17:58;0.00;0.00;0.62;0.00;0.00;0.62;10.73;6.00;;;25.80;40.00;;;;;;2268626;61;20362;-68
2023/09/29 05:20:44;0.00;0.00;0.62;0.00;0.00;0.62;5.40;4.90;;;25.80;40.00;;;;;;2268751;61;20395;-66
2023/09/29 05:23:29;0.00;0.00;0.62;0.00;0.00;0.62;7.73;5.50;;;25.80;40.00;;;;;;2269035;61;20424;-66
2023/09/29 05:26:13;0.00;0.00;0.62;0.00;0.00;0.62;6.47;4.60;;;25.80;40.00;;;;;;2269002;61;20359;-66
2023/09/29 05:28:59;0.00;0.00;0.62;0.00;0.00;0.62;6.50;5.30;;;25.80;40.00;;;;;;2268537;61;20529;-66
2023/09/29 05:31:45;0.00;0.00;0.62;0.00;0.00;0.62;6.40;4.70;;;25.80;40.00;;;;;;2268503;61;20412;-66
2023/09/29 05:34:29;0.00;0.00;0.62;0.00;0.00;0.62;7.47;5.77;;;25.80;40.00;;;;;;2268648;61;20363;-67
2023/09/29 05:37:15;0.00;0.00;0.62;0.00;0.00;0.62;6.70;4.67;;;25.80;40.10;;;;;;2268945;61;20421;-66
2023/09/29 05:40:03;0.00;0.00;0.62;0.00;0.00;0.62;6.53;4.97;;;25.80;40.10;;;;;;2268436;61;20431;-66
2023/09/29 05:42:48;0.00;0.00;0.62;0.00;0.00;0.62;7.10;5.20;;;25.80;40.20;;;;;;2268553;61;20366;-64
2023/09/29 05:45:33;0.00;0.00;0.62;0.00;0.00;0.62;6.47;5.10;;;25.80;40.20;;;;;;2269056;61;20367;-67
2023/09/29 05:48:18;0.00;0.00;0.62;0.00;0.00;0.62;6.67;5.80;;;25.80;40.20;;;;;;2268311;61;20417;-67
2023/09/29 05:51:03;0.00;0.00;0.62;0.00;0.00;0.62;11.17;5.53;;;25.80;40.20;;;;;;2268932;61;20477;-66
2023/09/29 05:53:49;0.00;0.00;0.62;0.00;0.00;0.62;6.30;5.27;;;25.80;40.10;;;;;;2269053;61;20827;-67
2023/09/29 05:56:33;0.00;0.00;0.62;0.00;0.00;0.62;4.93;4.37;;;25.80;40.10;;;;;;2497072;53;20400;-68
2023/09/29 05:59:18;0.00;0.00;0.62;0.00;0.00;0.62;5.63;5.07;;;25.90;40.10;;;;;;2260276;61;20440;-65
2023/09/29 06:02:03;0.00;0.00;0.62;0.00;0.00;0.62;4.93;4.43;;;25.90;40.10;;;;;;2260773;61;20387;-67
2023/09/29 06:04:47;0.00;0.00;0.62;0.00;0.00;0.62;6.20;5.40;;;25.90;40.10;;;;;;2260464;61;20932;-68
2023/09/29 06:07:32;0.00;0.00;0.62;0.00;0.00;0.62;5.93;5.33;;;26.00;40.10;;;;;;2260664;61;20373;-67
2023/09/29 06:10:18;0.00;0.00;0.62;0.00;0.00;0.62;5.50;4.77;;;26.00;40.00;;;;;;2260456;61;20376;-67
2023/09/29 06:13:04;0.00;0.00;0.62;0.00;0.00;0.62;6.20;5.43;;;26.00;40.00;;;;;;2260517;61;20399;-67
2023/09/29 06:15:49;0.00;0.00;0.62;0.00;0.00;0.62;7.00;6.10;;;26.00;39.90;;;;;;2260667;61;20376;-67
2023/09/29 06:18:33;0.00;0.00;0.62;0.00;0.00;0.62;8.17;5.20;;;26.10;40.00;;;;;;2260280;61;20372;-67
2023/09/29 06:21:18;0.00;0.00;0.62;0.00;0.00;0.62;8.03;5.97;;;26.10;39.80;;;;;;2262957;61;20671;-69
2023/09/29 06:24:03;0.00;0.00;0.62;0.00;0.00;0.62;6.67;5.77;;;26.10;39.80;;;;;;2260892;61;20364;-67
2023/09/29 06:26:49;0.00;0.00;0.62;0.00;0.00;0.62;7.07;6.43;;;26.20;39.70;;;;;;2260500;61;20385;-66
2023/09/29 06:29:34;0.00;0.00;0.62;0.00;0.00;0.62;7.47;6.77;;;26.20;39.70;;;;;;2260415;61;20369;-66
2023/09/29 06:32:19;0.00;0.00;0.62;0.00;0.00;0.62;7.67;6.77;;;26.20;39.70;;;;;;2260516;61;20678;-67
2023/09/29 06:35:05;0.00;0.00;0.62;0.00;0.00;0.62;6.53;5.93;;;26.20;39.60;;;;;;2260600;61;20439;-67
2023/09/29 06:37:51;0.00;0.00;0.62;0.00;0.00;0.62;5.67;5.17;;;26.20;39.60;;;;;;2260621;61;20415;-67
2023/09/29 06:40:36;0.00;0.00;0.62;0.00;0.00;0.62;8.40;6.17;;;26.20;39.50;;;;;;2260479;61;20948;-65
2023/09/29 06:43:21;0.00;0.00;0.62;0.00;0.00;0.62;6.07;5.47;;;26.20;39.40;;;;;;2260617;61;20361;-65
2023/09/29 06:46:06;0.00;0.00;0.62;0.00;0.00;0.62;6.70;5.90;;;26.20;39.40;;;;;;2260592;61;20385;-66
2023/09/29 06:48:52;0.00;0.00;0.62;0.00;0.00;0.62;5.43;4.77;;;26.20;39.40;;;;;;2260170;61;20428;-66
2023/09/29 06:51:37;0.00;0.00;0.62;0.00;0.00;0.62;6.33;5.70;;;26.20;39.40;;;;;;2260580;61;20420;-66
2023/09/29 06:54:21;0.00;0.00;0.62;0.00;0.00;0.62;8.07;5.10;;;26.10;39.60;;;;;;2262035;61;20375;-67
2023/09/29 06:57:06;0.00;0.00;0.62;0.00;0.00;0.62;5.73;4.30;;;26.10;39.40;;;;;;2268523;61;20394;-66
2023/09/29 06:59:52;0.00;0.00;0.62;0.00;0.00;0.62;5.70;4.67;;;26.00;39.40;;;;;;2268397;61;20390;-67
2023/09/29 07:02:37;0.00;0.00;0.62;0.00;0.00;0.62;7.23;5.47;;;26.00;39.50;;;;;;2268596;61;20721;-67
2023/09/29 07:05:22;0.00;0.00;0.62;0.00;0.00;0.62;5.97;4.70;;;26.00;39.70;;;;;;2268802;61;20898;-67
2023/09/29 07:08:06;0.00;0.00;0.62;0.00;0.00;0.62;4.50;3.83;;;25.90;39.80;;;;;;2268293;61;20385;-68
2023/09/29 07:10:51;0.00;0.00;0.62;0.00;0.00;0.62;6.20;4.00;;;25.80;39.90;;;;;;2268338;61;20463;-67
2023/09/29 07:13:36;0.00;0.00;0.62;0.00;0.00;0.62;7.60;4.80;;;25.80;40.10;;;;;;2268186;61;20363;-67
2023/09/29 07:16:22;0.00;0.00;0.62;0.00;0.00;0.62;7.67;4.63;;;25.80;40.40;;;;;;2268479;61;20359;-67
2023/09/29 07:19:06;0.00;0.00;0.62;0.00;0.00;0.62;5.10;4.60;;;25.70;40.30;;;;;;2267990;61;20417;-67
2023/09/29 07:21:51;0.00;0.00;0.62;0.00;0.00;0.62;7.70;4.73;;;25.70;40.30;;;;;;2268495;61;20391;-66
2023/09/29 07:24:38;0.00;0.00;0.62;0.00;0.00;0.62;6.40;5.00;;;25.60;40.30;;;;;;2268678;61;20363;-67
2023/09/29 07:27:23;0.00;0.00;0.62;0.00;0.00;0.62;6.57;4.97;;;25.60;40.30;;;;;;2268464;61;20413;-67
2023/09/29 07:30:09;0.00;0.00;0.62;0.00;0.00;0.62;8.20;5.17;;;25.50;40.40;;;;;;2268358;61;20383;-66
2023/09/29 07:32:55;0.00;0.00;0.62;0.00;0.00;0.62;7.03;4.50;;;25.50;40.60;;;;;;2268338;61;20359;-68
2023/09/29 07:35:43;0.00;0.00;0.62;0.00;0.00;0.62;6.23;4.70;;;25.50;40.70;;;;;;2266480;61;20384;-67
2023/09/29 07:38:28;0.00;0.00;0.62;0.00;0.00;0.62;6.87;5.30;;;25.50;40.90;;;;;;2263966;61;20363;-66
2023/09/29 07:41:12;0.00;0.00;0.62;0.00;0.00;0.62;6.73;5.10;;;25.40;41.00;;;;;;2264310;61;20384;-66
2023/09/29 07:43:57;0.00;0.00;0.62;0.00;0.00;0.62;5.80;4.40;;;25.40;41.10;;;;;;2264016;61;20772;-66
2023/09/29 07:46:42;0.00;0.00;0.62;0.00;0.00;0.62;4.80;4.30;;;25.30;41.20;;;;;;2264499;61;20364;-66
2023/09/29 07:49:28;0.00;0.00;0.62;0.00;0.00;0.62;10.23;5.00;;;25.30;41.30;;;;;;2264159;61;20364;-66
2023/09/29 07:52:12;0.00;0.00;0.62;0.00;0.00;0.62;12.00;4.97;;;25.30;41.40;;;;;;2264627;61;20892;-66
2023/09/29 07:54:57;0.00;0.00;0.62;0.00;0.00;0.62;5.73;4.87;;;25.20;41.50;;;;;;2266100;61;20402;-66
2023/09/29 07:57:41;0.00;0.00;0.62;0.00;0.00;0.62;5.40;4.87;;;25.20;41.60;;;;;;2268616;61;20356;-65
2023/09/29 08:00:26;0.00;0.00;0.62;0.00;0.00;0.62;7.60;5.60;;;25.20;41.70;;;;;;2265227;61;20387;-68
2023/09/29 08:03:11;0.00;0.00;0.62;0.00;0.00;0.62;5.00;4.50;;;25.10;41.80;;;;;;2268404;61;20378;-65
2023/09/29 08:05:57;0.00;0.00;0.62;0.00;0.00;0.62;8.30;5.00;;;25.10;41.90;;;;;;2268466;61;20451;-71
2023/09/29 08:08:41;0.00;0.00;0.62;0.00;0.00;0.62;5.30;4.80;;;25.10;42.00;;;;;;2264930;61;20887;-64
2023/09/29 08:11:26;0.00;0.00;0.62;0.00;0.00;0.62;8.43;4.93;;;25.10;42.10;;;;;;2268211;61;20926;-66
2023/09/29 08:14:11;0.00;0.00;0.62;0.00;0.00;0.62;5.20;4.60;;;25.10;42.20;;;;;;2268577;61;20359;-67
2023/09/29 08:16:56;0.00;0.00;0.62;0.00;0.00;0.62;10.87;5.63;;;25.00;42.20;;;;;;2267514;61;20389;-65
2023/09/29 08:19:41;0.00;0.00;0.62;0.00;0.00;0.62;5.90;5.03;;;25.00;42.30;;;;;;2267969;61;20413;-66
2023/09/29 08:22:27;0.00;0.00;0.62;0.00;0.00;0.62;5.87;4.57;;;25.00;42.40;;;;;;2268202;61;20391;-66
2023/09/29 08:25:12;0.00;0.00;0.62;0.00;0.00;0.62;6.40;5.53;;;24.90;42.60;;;;;;2268360;61;20359;-67
2023/09/29 08:27:57;0.00;0.00;0.62;0.00;0.00;0.62;6.80;5.50;;;24.90;42.60;;;;;;2268043;61;20405;-66
2023/09/29 08:30:42;0.00;0.00;0.62;0.00;0.00;0.62;9.10;6.03;;;24.90;42.70;;;;;;2268359;61;20379;-65
2023/09/29 08:33:28;0.00;0.00;0.62;0.00;0.00;0.62;9.10;5.17;;;24.90;42.80;;;;;;2267963;61;20367;-66
2023/09/29 08:36:13;0.00;0.00;0.62;0.00;0.00;0.62;7.13;5.73;;;24.90;42.90;;;;;;2268220;61;20515;-67
2023/09/29 08:39:00;0.00;0.00;0.62;0.00;0.00;0.62;5.40;4.80;;;24.90;43.00;;;;;;2267538;61;20367;-67
2023/09/29 08:41:54;0.00;0.00;0.62;0.00;0.00;0.62;10.53;5.57;;;24.90;43.10;;;;;;2267870;61;20489;-67
2023/09/29 08:44:42;0.00;0.00;0.62;0.00;0.00;0.62;6.33;4.90;;;24.90;43.20;;;;;;2268267;61;20413;-66
2023/09/29 08:47:30;0.00;0.00;0.62;0.00;0.00;0.62;6.50;5.20;;;24.90;43.30;;;;;;2268209;61;20489;-69
2023/09/29 08:50:16;0.00;0.00;0.62;0.00;0.00;0.62;4.97;4.37;;;24.80;43.30;;;;;;2267888;61;20383;-66
2023/09/29 08:53:03;0.00;0.00;0.62;0.00;0.00;0.62;5.33;4.83;;;24.80;43.40;;;;;;2268309;61;20363;-67
2023/09/29 08:55:50;0.00;0.00;0.62;0.00;0.00;0.62;7.10;5.23;;;24.80;43.40;;;;;;2264941;61;20418;-67
2023/09/29 08:58:35;0.00;0.00;0.62;0.00;0.00;0.62;6.93;5.30;;;24.80;43.40;;;;;;2264042;61;20795;-66
2023/09/29 09:01:19;0.00;0.00;0.62;0.00;0.00;0.62;6.30;5.40;;;24.80;43.50;;;;;;2263981;61;21019;-67
2023/09/29 09:04:05;0.00;0.00;0.62;0.00;0.00;0.62;11.50;6.40;;;24.80;43.60;;;;;;2264314;61;20467;-67
2023/09/29 09:06:50;0.00;0.00;0.62;0.00;0.00;0.62;5.47;4.87;;;24.80;43.60;;;;;;2263710;61;20463;-67
2023/09/29 09:09:36;0.00;0.00;0.62;0.00;0.00;0.62;7.13;5.10;;;24.80;43.70;;;;;;2263392;61;20452;-66
2023/09/29 09:12:33;0.00;0.00;0.62;0.00;0.00;0.62;6.60;5.60;;;24.80;43.80;;;;;;2264147;61;20364;-67
2023/09/29 09:15:24;0.00;0.00;0.62;0.00;0.00;0.62;6.60;5.40;;;24.80;43.80;;;;;;2264433;61;20364;-66
2023/09/29 09:18:09;0.00;0.00;0.62;0.00;0.00;0.62;7.70;4.83;;;24.80;43.90;;;;;;2263279;61;20841;-67
2023/09/29 09:20:54;0.00;0.00;0.62;0.00;0.00;0.62;7.73;4.30;;;24.80;43.90;;;;;;2264297;61;20407;-67
2023/09/29 09:23:39;0.00;0.00;0.62;0.00;0.00;0.62;5.60;4.90;;;24.80;43.90;;;;;;2263924;61;20380;-67
2023/09/29 09:26:28;0.00;0.00;0.62;0.00;0.00;0.62;6.93;5.50;;;24.80;44.00;;;;;;2264452;61;20363;-67
2023/09/29 09:29:16;0.00;0.00;0.62;0.00;0.00;0.62;7.60;5.50;;;24.80;44.00;;;;;;2264010;61;20367;-66
2023/09/29 09:32:05;0.00;0.00;0.62;0.00;0.00;0.62;5.77;4.90;;;24.80;44.10;;;;;;2264060;61;20364;-67
2023/09/29 09:34:50;0.00;0.00;0.62;0.00;0.00;0.62;8.60;4.80;;;24.80;44.10;;;;;;2264067;61;20365;-67
2023/09/29 09:37:34;0.00;0.00;0.62;0.00;0.00;0.62;4.73;4.23;;;24.90;44.20;;;;;;2264295;61;20816;-67
2023/09/29 09:40:19;0.00;0.00;0.62;0.00;0.00;0.62;6.17;4.70;;;24.90;44.10;;;;;;2263922;61;20479;-68
2023/09/29 09:43:09;0.00;0.00;0.62;0.00;0.00;0.62;6.23;4.67;;;24.90;44.10;;;;;;2263796;61;20418;-66
2023/09/29 09:46:03;0.00;0.00;0.62;0.00;0.00;0.62;6.50;4.83;;;24.90;44.10;;;;;;2260848;61;20409;-67
2023/09/29 09:48:55;0.00;0.00;0.62;0.00;0.00;0.62;5.33;4.70;;;24.90;44.10;;;;;;2263960;61;20856;-67
2023/09/29 09:51:44;0.00;0.00;0.62;0.00;0.00;0.62;7.80;4.80;;;24.90;44.20;;;;;;2264659;61;20376;-67
2023/09/29 09:54:35;0.00;0.00;0.62;0.00;0.00;0.62;7.37;5.50;;;25.00;44.20;;;;;;2264656;61;20378;-67
2023/09/29 09:57:27;0.00;0.00;0.62;0.00;0.00;0.62;9.40;4.97;;;25.00;44.30;;;;;;2264882;61;20771;-67
2023/09/29 10:00:13;0.00;0.00;0.62;0.00;0.00;0.62;6.67;5.20;;;25.00;44.30;;;;;;2264349;61;20411;-68
2023/09/29 10:03:03;0.00;0.00;0.62;0.00;0.00;0.62;9.23;4.97;;;25.00;44.30;;;;;;2264741;61;20430;-67
2023/09/29 10:05:54;0.00;0.00;0.62;0.00;0.00;0.62;6.00;4.63;;;25.00;44.30;;;;;;2265011;61;20360;-67
2023/09/29 10:08:39;0.00;0.00;0.62;0.00;0.00;0.62;6.53;4.70;;;25.10;44.40;;;;;;2264302;61;20364;-65
2023/09/29 10:11:26;0.00;0.00;0.62;0.00;0.00;0.62;8.50;5.20;;;25.10;44.40;;;;;;2264758;61;20387;-66
2023/09/29 10:14:11;0.00;0.00;0.62;0.00;0.00;0.62;5.63;5.13;;;25.10;44.50;;;;;;2264798;61;20356;-66
2023/09/29 10:17:02;0.00;0.00;0.62;0.00;0.00;0.62;7.60;4.70;;;25.20;44.50;;;;;;2264785;61;20368;-67
2023/09/29 10:19:54;0.00;0.00;0.62;0.00;0.00;0.62;5.30;4.30;;;25.10;44.40;;;;;;2264347;61;20471;-69
2023/09/29 10:22:40;0.00;0.00;0.62;0.00;0.00;0.62;6.63;4.27;;;25.20;44.50;;;;;;2264622;61;20876;-67
2023/09/29 10:25:25;0.00;0.00;0.62;0.00;0.00;0.62;5.20;4.60;;;25.20;44.50;;;;;;2265060;61;20361;-68
2023/09/29 10:28:12;0.00;0.00;0.62;0.00;0.00;0.62;5.80;4.50;;;25.20;44.40;;;;;;2264387;61;20836;-67
2023/09/29 10:31:07;0.00;0.00;0.62;0.00;0.00;0.62;6.07;5.30;;;25.30;44.50;;;;;;2264216;61;20830;-65
2023/09/29 10:33:53;0.00;0.00;0.62;0.00;0.00;0.62;5.70;4.47;;;25.30;44.60;;;;;;2264727;61;20959;-66
2023/09/29 10:36:40;0.00;0.00;0.62;0.00;0.00;0.62;7.03;4.20;;;25.30;44.50;;;;;;2264661;61;20398;-68
2023/09/29 10:39:26;0.00;0.00;0.62;0.00;0.00;0.62;7.00;4.30;;;25.40;44.60;;;;;;2264213;61;20371;-67
2023/09/29 10:42:14;0.00;0.00;0.62;0.00;0.00;0.62;4.53;4.13;;;25.40;44.60;;;;;;2264617;61;20423;-67
2023/09/29 10:44:59;0.00;0.00;0.62;0.00;0.00;0.62;4.23;3.70;;;25.50;44.50;;;;;;2264629;61;20364;-68
2023/09/29 10:47:43;0.00;0.00;0.62;0.00;0.00;0.62;4.20;3.70;;;25.50;44.40;;;;;;2264575;61;20400;-65
2023/09/29 10:50:28;0.00;0.00;0.62;0.00;0.00;0.62;4.80;4.30;;;25.60;44.30;;;;;;2264634;61;20988;-65
2023/09/29 10:53:14;0.00;0.00;0.62;0.00;0.00;0.62;4.47;4.03;;;25.60;44.30;;;;;;2264101;61;20411;-66
2023/09/29 10:56:00;0.00;0.00;0.62;0.00;0.00;0.62;7.13;3.73;;;25.60;44.10;;;;;;2268327;61;20375;-66
2023/09/29 10:58:45;0.00;0.00;0.62;0.00;0.00;0.62;6.30;4.30;;;25.70;44.10;;;;;;2268362;61;20359;-66